createdAt,value
2019-02-09T00:01:26.519Z,9.07
2019-02-09T00:03:57.232Z,10.00
2019-02-09T00:06:27.862Z,10.17
2019-02-09T00:08:57.371Z,11.10
2019-02-09T00:11:26.992Z,10.70
2019-02-09T00:13:56.529Z,11.33
2019-02-09T00:16:28.848Z,8.93
2019-02-09T00:18:58.266Z,11.60
2019-02-09T00:21:30.884Z,10.97
2019-02-09T00:24:00.900Z,10.23
2019-02-09T00:29:20.493Z,12.37
2019-02-09T00:31:50.040Z,13.47
2019-02-09T00:34:19.682Z,8.93
2019-02-09T00:36:49.319Z,11.30
2019-02-09T00:39:18.755Z,9.43
2019-02-09T00:41:48.262Z,11.03
2019-02-09T00:44:17.764Z,12.90
2019-02-09T00:46:47.272Z,11.40
2019-02-09T00:49:16.849Z,10.27
2019-02-09T00:51:46.440Z,9.80
2019-02-09T00:54:15.988Z,11.30
2019-02-09T00:56:45.547Z,12.03
2019-02-09T00:59:15.082Z,8.67
2019-02-09T01:01:45.120Z,10.13
2019-02-09T01:04:15.064Z,9.80
2019-02-09T01:06:48.073Z,10.93
2019-02-09T01:09:18.405Z,9.47
2019-02-09T01:11:48.642Z,8.83
2019-02-09T01:14:18.647Z,10.57
2019-02-09T01:16:48.575Z,9.40
2019-02-09T01:19:26.564Z,9.37
2019-02-09T01:21:56.487Z,10.70
2019-02-09T01:24:26.778Z,8.50
2019-02-09T01:26:56.920Z,9.77
2019-02-09T01:29:26.822Z,7.70
2019-02-09T01:31:57.291Z,11.03
2019-02-09T01:34:27.369Z,11.27
2019-02-09T01:36:57.138Z,10.10
2019-02-09T01:39:27.373Z,8.37
2019-02-09T01:41:57.390Z,8.90
2019-02-09T01:44:27.230Z,7.63
2019-02-09T01:46:57.151Z,9.30
2019-02-09T01:49:27.252Z,7.97
2019-02-09T01:51:57.716Z,9.03
2019-02-09T01:54:27.271Z,11.00
2019-02-09T01:56:56.879Z,10.43
2019-02-09T01:59:26.379Z,9.93
2019-02-09T02:01:56.414Z,8.80
2019-02-09T02:04:25.968Z,9.50
2019-02-09T02:06:55.469Z,10.57
2019-02-09T02:09:25.149Z,8.87
2019-02-09T02:11:54.704Z,10.57
2019-02-09T02:14:24.211Z,12.93
2019-02-09T02:16:53.741Z,11.87
2019-02-09T02:19:23.383Z,10.73
2019-02-09T02:21:52.878Z,11.57
2019-02-09T02:24:22.372Z,9.73
2019-02-09T02:26:51.930Z,9.23
2019-02-09T02:29:21.395Z,11.40
2019-02-09T02:31:50.915Z,9.03
2019-02-09T02:34:20.416Z,11.40
2019-02-09T02:36:49.940Z,10.50
2019-02-09T02:39:19.438Z,9.90
2019-02-09T02:41:50.652Z,10.63
2019-02-09T02:44:20.213Z,9.97
2019-02-09T02:46:49.767Z,11.37
2019-02-09T02:49:19.256Z,10.00
2019-02-09T02:51:48.778Z,10.73
2019-02-09T02:54:18.378Z,9.67
2019-02-09T02:56:47.879Z,12.13
2019-02-09T02:59:17.393Z,9.40
2019-02-09T03:01:46.909Z,11.87
2019-02-09T03:04:16.477Z,8.80
2019-02-09T03:06:47.853Z,10.63
2019-02-09T03:09:17.303Z,7.77
2019-02-09T03:11:46.909Z,9.10
2019-02-09T03:14:16.422Z,10.07
2019-02-09T03:16:45.954Z,9.27
2019-02-09T03:19:15.450Z,8.47
2019-02-09T03:21:44.943Z,8.13
2019-02-09T03:24:14.427Z,13.37
2019-02-09T03:26:43.910Z,11.03
2019-02-09T03:29:13.428Z,9.57
2019-02-09T03:31:42.923Z,9.27
2019-02-09T03:34:12.437Z,10.67
2019-02-09T03:36:41.975Z,10.37
2019-02-09T03:39:11.491Z,10.90
2019-02-09T03:41:40.996Z,9.50
2019-02-09T03:44:10.594Z,9.43
2019-02-09T03:46:40.091Z,9.30
2019-02-09T03:49:09.637Z,8.63
2019-02-09T03:51:39.208Z,10.40
2019-02-09T03:54:08.697Z,9.13
2019-02-09T03:56:38.251Z,10.73
2019-02-09T03:59:07.825Z,10.57
2019-02-09T04:01:37.346Z,10.93
2019-02-09T04:04:07.210Z,10.17
2019-02-09T04:06:36.823Z,11.53
2019-02-09T04:09:08.859Z,11.27
2019-02-09T04:11:38.381Z,10.90
2019-02-09T04:14:08.007Z,12.20
2019-02-09T04:16:37.499Z,10.27
2019-02-09T04:19:07.078Z,10.30
2019-02-09T04:21:36.561Z,9.53
2019-02-09T04:24:06.149Z,10.23
2019-02-09T04:26:35.669Z,9.60
2019-02-09T04:29:05.161Z,11.77
2019-02-09T04:31:34.651Z,11.50
2019-02-09T04:34:04.378Z,10.17
2019-02-09T04:36:33.904Z,12.67
2019-02-09T04:39:05.047Z,11.20
2019-02-09T04:41:34.590Z,10.00
2019-02-09T04:44:04.295Z,9.17
2019-02-09T04:46:33.769Z,12.93
2019-02-09T04:49:03.346Z,13.47
2019-02-09T04:51:32.926Z,10.03
2019-02-09T04:54:02.371Z,10.93
2019-02-09T04:56:31.906Z,12.23
2019-02-09T04:59:01.554Z,11.30
2019-02-09T05:01:31.115Z,11.17
2019-02-09T05:04:00.657Z,9.93
2019-02-09T05:06:30.227Z,11.17
2019-02-09T05:08:59.702Z,17.57
2019-02-09T05:11:29.190Z,15.40
2019-02-09T05:13:58.718Z,15.57
2019-02-09T05:16:28.312Z,12.83
2019-02-09T05:18:57.869Z,12.07
2019-02-09T05:21:27.362Z,11.00
2019-02-09T05:23:56.842Z,10.10
2019-02-09T05:26:26.322Z,12.43
2019-02-09T05:28:55.815Z,9.00
2019-02-09T05:31:25.353Z,12.87
2019-02-09T05:33:54.889Z,13.67
2019-02-09T05:36:24.358Z,11.13
2019-02-09T05:38:53.859Z,11.47
2019-02-09T05:41:23.388Z,11.50
2019-02-09T05:43:52.923Z,15.67
2019-02-09T05:46:22.481Z,13.83
2019-02-09T05:48:52.099Z,12.23
2019-02-09T05:51:21.613Z,18.30
2019-02-09T05:53:51.121Z,9.27
2019-02-09T05:56:20.643Z,12.10
2019-02-09T05:58:50.119Z,11.73
2019-02-09T06:01:19.787Z,10.20
2019-02-09T06:03:49.378Z,12.60
2019-02-09T06:06:18.917Z,16.53
2019-02-09T06:08:48.457Z,14.27
2019-02-09T06:11:19.282Z,17.77
2019-02-09T06:13:48.903Z,12.60
2019-02-09T06:16:18.473Z,14.17
2019-02-09T06:18:47.992Z,13.90
2019-02-09T06:21:17.604Z,11.40
2019-02-09T06:23:47.093Z,12.00
2019-02-09T06:26:16.636Z,10.63
2019-02-09T06:28:46.209Z,14.17
2019-02-09T06:31:15.672Z,14.00
2019-02-09T06:33:45.341Z,11.80
2019-02-09T06:36:14.840Z,13.63
2019-02-09T06:38:44.380Z,13.07
2019-02-09T06:41:13.926Z,12.63
2019-02-09T06:43:43.491Z,17.00
2019-02-09T06:46:13.073Z,17.63
2019-02-09T06:48:42.577Z,13.80
2019-02-09T06:51:12.081Z,10.67
2019-02-09T06:53:41.633Z,11.97
2019-02-09T06:56:11.161Z,13.10
2019-02-09T06:58:40.724Z,13.13
2019-02-09T07:01:10.184Z,12.53
2019-02-09T07:03:39.680Z,11.90
2019-02-09T07:06:09.238Z,10.60
2019-02-09T07:08:38.772Z,9.70
2019-02-09T07:11:08.455Z,8.90
2019-02-09T07:13:37.954Z,15.63
2019-02-09T07:16:07.547Z,13.53
2019-02-09T07:18:37.064Z,10.10
2019-02-09T07:21:06.782Z,13.80
2019-02-09T07:23:36.348Z,14.87
2019-02-09T07:26:05.966Z,14.40
2019-02-09T07:28:35.515Z,7.93
2019-02-09T07:31:05.533Z,15.67
2019-02-09T07:33:35.105Z,10.93
2019-02-09T07:36:04.699Z,12.87
2019-02-09T07:38:34.253Z,15.87
2019-02-09T07:41:03.874Z,17.07
2019-02-09T07:43:33.452Z,23.17
2019-02-09T07:46:03.062Z,14.03
2019-02-09T07:48:32.709Z,11.30
2019-02-09T07:51:02.170Z,18.47
2019-02-09T07:53:31.807Z,21.90
2019-02-09T07:56:01.292Z,19.77
2019-02-09T07:58:30.756Z,19.37
2019-02-09T08:01:00.423Z,20.40
2019-02-09T08:03:29.889Z,19.87
2019-02-09T08:05:59.523Z,18.23
2019-02-09T08:08:29.058Z,15.20
2019-02-09T08:10:58.594Z,12.87
2019-02-09T08:13:28.192Z,15.90
2019-02-09T08:15:57.758Z,13.53
2019-02-09T08:18:27.413Z,11.80
2019-02-09T08:20:56.926Z,11.10
2019-02-09T08:23:26.565Z,14.23
2019-02-09T08:25:56.076Z,10.93
2019-02-09T08:28:25.617Z,14.57
2019-02-09T08:30:55.329Z,13.23
2019-02-09T08:33:24.849Z,13.23
2019-02-09T08:35:54.374Z,24.63
2019-02-09T08:38:23.875Z,15.83
2019-02-09T08:40:53.357Z,12.67
2019-02-09T08:43:23.046Z,16.63
2019-02-09T08:45:52.617Z,17.20
2019-02-09T08:48:22.172Z,11.77
2019-02-09T08:50:55.928Z,14.57
2019-02-09T08:53:25.475Z,18.17
2019-02-09T08:55:55.116Z,15.37
2019-02-09T08:58:24.737Z,14.40
2019-02-09T09:00:54.396Z,15.37
2019-02-09T09:03:23.887Z,16.53
2019-02-09T09:05:53.596Z,16.20
2019-02-09T09:08:23.093Z,17.17
2019-02-09T09:10:52.679Z,17.40
2019-02-09T09:13:22.754Z,19.83
2019-02-09T09:15:54.468Z,19.83
2019-02-09T09:18:24.040Z,23.23
2019-02-09T09:20:56.031Z,20.37
2019-02-09T09:23:25.595Z,21.37
2019-02-09T09:25:55.147Z,20.10
2019-02-09T09:28:24.638Z,16.93
2019-02-09T09:30:54.130Z,19.33
2019-02-09T09:33:23.671Z,18.83
2019-02-09T09:35:53.447Z,20.80
2019-02-09T09:38:23.107Z,22.90
2019-02-09T09:40:52.535Z,20.37
2019-02-09T09:43:22.067Z,20.60
2019-02-09T09:45:51.631Z,23.57
2019-02-09T09:48:21.644Z,22.17
2019-02-09T09:50:51.224Z,23.70
2019-02-09T09:53:20.759Z,24.83
2019-02-09T09:55:50.384Z,24.57
2019-02-09T09:58:19.999Z,26.53
2019-02-09T10:00:49.568Z,26.17
2019-02-09T10:03:21.052Z,20.70
2019-02-09T10:05:50.541Z,24.13
2019-02-09T10:08:21.233Z,28.40
2019-02-09T10:10:54.134Z,24.93
2019-02-09T10:13:23.659Z,29.63
2019-02-09T10:15:53.147Z,26.47
2019-02-09T10:18:22.695Z,25.47
2019-02-09T10:20:52.265Z,24.20
2019-02-09T10:23:21.810Z,24.80
2019-02-09T10:25:51.363Z,21.37
2019-02-09T10:28:20.895Z,26.43
2019-02-09T10:30:50.371Z,24.83
2019-02-09T10:33:20.004Z,23.97
2019-02-09T10:35:49.524Z,29.13
2019-02-09T10:38:19.013Z,24.40
2019-02-09T10:40:48.593Z,23.17
2019-02-09T10:43:21.538Z,25.30
2019-02-09T10:45:51.242Z,26.97
2019-02-09T10:48:21.310Z,23.90
2019-02-09T10:50:50.923Z,25.57
2019-02-09T10:53:20.473Z,27.20
2019-02-09T10:55:50.060Z,28.30
2019-02-09T10:58:19.627Z,33.53
2019-02-09T11:00:52.374Z,27.17
2019-02-09T11:03:22.000Z,25.13
2019-02-09T11:05:51.498Z,22.87
2019-02-09T11:08:21.199Z,24.27
2019-02-09T11:10:50.917Z,25.53
2019-02-09T11:13:20.595Z,22.03
2019-02-09T11:15:50.139Z,22.70
2019-02-09T11:18:19.802Z,23.63
2019-02-09T11:20:49.299Z,23.20
2019-02-09T11:23:18.869Z,27.60
2019-02-09T11:25:48.413Z,26.80
2019-02-09T11:28:18.017Z,25.80
2019-02-09T11:30:47.579Z,26.63
2019-02-09T11:33:17.157Z,24.83
2019-02-09T11:35:46.825Z,26.57
2019-02-09T11:38:16.466Z,25.70
2019-02-09T11:40:46.006Z,29.07
2019-02-09T11:43:15.507Z,26.90
2019-02-09T11:45:45.049Z,26.70
2019-02-09T11:48:14.650Z,27.27
2019-02-09T11:50:44.216Z,25.83
2019-02-09T11:53:13.851Z,26.67
2019-02-09T11:55:43.438Z,25.93
2019-02-09T11:58:13.028Z,25.20
2019-02-09T12:00:45.569Z,29.03
2019-02-09T12:03:16.331Z,29.07
2019-02-09T12:05:46.049Z,25.87
2019-02-09T12:08:15.590Z,24.87
2019-02-09T12:10:45.185Z,28.87
2019-02-09T12:13:14.809Z,24.57
2019-02-09T12:15:44.520Z,31.73
2019-02-09T12:18:14.185Z,26.73
2019-02-09T12:20:43.760Z,26.87
2019-02-09T12:23:13.301Z,29.97
2019-02-09T12:25:42.898Z,29.03
2019-02-09T12:28:12.583Z,29.10
2019-02-09T12:30:42.202Z,29.50
2019-02-09T12:33:11.812Z,28.03
2019-02-09T12:35:41.715Z,30.07
2019-02-09T12:38:11.990Z,27.33
2019-02-09T12:40:41.581Z,28.63
2019-02-09T12:43:11.135Z,26.03
2019-02-09T12:45:40.749Z,27.53
2019-02-09T12:48:11.015Z,27.73
2019-02-09T12:50:40.890Z,26.97
2019-02-09T12:53:13.031Z,26.30
2019-02-09T12:55:42.860Z,28.23
2019-02-09T12:58:12.435Z,28.17
2019-02-09T13:00:42.084Z,32.80
2019-02-09T13:03:17.446Z,27.27
2019-02-09T13:05:47.107Z,29.07
2019-02-09T13:08:16.668Z,27.20
2019-02-09T13:10:46.332Z,29.10
2019-02-09T13:13:15.938Z,30.53
2019-02-09T13:15:45.489Z,32.73
2019-02-09T13:18:15.050Z,34.67
2019-02-09T13:20:44.586Z,29.93
2019-02-09T13:23:15.881Z,34.83
2019-02-09T13:25:45.596Z,27.80
2019-02-09T13:28:15.266Z,31.17
2019-02-09T13:30:45.005Z,31.37
2019-02-09T13:33:14.490Z,33.27
2019-02-09T13:35:44.079Z,33.77
2019-02-09T13:38:13.629Z,34.70
2019-02-09T13:40:43.573Z,33.13
2019-02-09T13:43:13.363Z,33.67
2019-02-09T13:45:48.810Z,31.43
2019-02-09T13:48:18.463Z,27.93
2019-02-09T13:50:48.056Z,25.77
2019-02-09T13:53:18.204Z,30.47
2019-02-09T13:55:47.744Z,29.07
2019-02-09T13:58:17.359Z,34.27
2019-02-09T14:00:46.882Z,38.03
2019-02-09T14:03:16.432Z,34.73
2019-02-09T14:05:45.973Z,31.70
2019-02-09T14:08:15.512Z,30.60
2019-02-09T14:10:45.040Z,32.50
2019-02-09T14:13:15.002Z,30.33
2019-02-09T14:15:44.631Z,31.63
2019-02-09T14:18:14.173Z,32.80
2019-02-09T14:20:43.718Z,34.47
2019-02-09T14:23:13.252Z,32.53
2019-02-09T14:25:42.890Z,28.13
2019-02-09T14:28:12.465Z,31.70
2019-02-09T14:30:42.298Z,33.03
2019-02-09T14:33:12.093Z,29.53
2019-02-09T14:35:42.869Z,33.03
2019-02-09T14:38:12.428Z,32.47
2019-02-09T14:40:42.088Z,33.43
2019-02-09T14:43:12.064Z,32.33
2019-02-09T14:45:43.520Z,35.77
2019-02-09T14:48:13.214Z,33.17
2019-02-09T14:50:42.793Z,30.03
2019-02-09T14:53:12.745Z,29.73
2019-02-09T14:55:42.356Z,32.17
2019-02-09T14:58:11.864Z,31.70
2019-02-09T15:00:46.861Z,32.33
2019-02-09T15:03:16.697Z,27.27
2019-02-09T15:05:46.358Z,27.07
2019-02-09T15:08:15.846Z,28.33
2019-02-09T15:10:45.394Z,36.70
2019-02-09T15:13:15.705Z,32.90
2019-02-09T15:16:13.068Z,35.20
2019-02-09T15:18:42.612Z,30.50
2019-02-09T15:21:12.183Z,34.03
2019-02-09T15:23:41.796Z,38.00
2019-02-09T15:26:12.690Z,38.20
2019-02-09T15:28:43.014Z,36.37
2019-02-09T15:31:12.647Z,35.63
2019-02-09T15:33:42.235Z,41.33
2019-02-09T15:36:11.789Z,40.70
2019-02-09T15:38:41.330Z,37.97
2019-02-09T15:41:10.944Z,44.37
2019-02-09T15:43:40.461Z,42.30
2019-02-09T15:46:10.091Z,42.03
2019-02-09T15:48:39.622Z,44.40
2019-02-09T15:51:09.143Z,46.07
2019-02-09T15:53:38.716Z,48.67
2019-02-09T15:56:08.269Z,44.77
2019-02-09T15:58:37.802Z,44.83
2019-02-09T16:01:07.318Z,40.23
2019-02-09T16:03:36.892Z,45.43
2019-02-09T16:06:06.459Z,42.30
2019-02-09T16:08:36.002Z,43.33
2019-02-09T16:11:05.587Z,45.87
2019-02-09T16:13:35.090Z,40.57
2019-02-09T16:16:04.886Z,43.83
2019-02-09T16:18:34.429Z,46.27
2019-02-09T16:21:04.094Z,46.77
2019-02-09T16:23:33.561Z,44.23
2019-02-09T16:26:03.111Z,51.47
2019-02-09T16:28:32.651Z,59.50
2019-02-09T16:31:02.344Z,47.63
2019-02-09T16:33:31.892Z,52.23
2019-02-09T16:36:01.387Z,61.83
2019-02-09T16:38:30.940Z,65.03
2019-02-09T16:41:00.471Z,58.90
2019-02-09T16:43:30.062Z,50.60
2019-02-09T16:45:59.684Z,57.67
2019-02-09T16:48:29.269Z,60.77
2019-02-09T16:50:58.804Z,54.40
2019-02-09T16:53:28.391Z,51.03
2019-02-09T16:55:57.984Z,57.10
2019-02-09T16:58:27.606Z,56.20
2019-02-09T17:00:57.208Z,60.63
2019-02-09T17:03:26.826Z,51.17
2019-02-09T17:05:56.375Z,55.67
2019-02-09T17:08:25.874Z,59.77
2019-02-09T17:10:55.505Z,53.00
2019-02-09T17:13:25.001Z,46.07
2019-02-09T17:15:54.626Z,47.10
2019-02-09T17:18:24.130Z,44.80
2019-02-09T17:20:53.697Z,42.63
2019-02-09T17:23:23.315Z,43.93
2019-02-09T17:25:52.775Z,44.37
2019-02-09T17:28:22.333Z,43.83
2019-02-09T17:30:51.883Z,44.00
2019-02-09T17:33:21.412Z,47.73
2019-02-09T17:35:50.938Z,42.87
2019-02-09T17:38:20.397Z,52.60
2019-02-09T17:40:49.916Z,54.73
2019-02-09T17:43:19.399Z,54.07
2019-02-09T17:46:05.764Z,52.87
2019-02-09T17:48:35.363Z,49.23
2019-02-09T17:51:05.354Z,49.90
2019-02-09T17:53:35.043Z,47.10
2019-02-09T17:56:05.036Z,53.27
2019-02-09T17:58:37.837Z,54.70
2019-02-09T18:01:11.341Z,52.10
2019-02-09T18:03:40.929Z,55.93
2019-02-09T18:06:10.556Z,53.93
2019-02-09T18:08:40.130Z,58.37
2019-02-09T18:11:09.681Z,52.97
2019-02-09T18:13:39.156Z,62.17
2019-02-09T18:16:08.741Z,60.07
2019-02-09T18:18:38.261Z,60.63
2019-02-09T18:21:07.894Z,58.97
2019-02-09T18:23:37.561Z,59.33
2019-02-09T18:26:07.206Z,62.60
2019-02-09T18:28:36.765Z,60.77
2019-02-09T18:31:06.644Z,60.00
2019-02-09T18:33:36.208Z,63.60
2019-02-09T18:36:05.916Z,60.67
2019-02-09T18:38:35.449Z,62.73
2019-02-09T18:41:05.465Z,60.17
2019-02-09T18:43:35.020Z,59.17
2019-02-09T18:46:04.669Z,54.13
2019-02-09T18:48:34.328Z,61.63
2019-02-09T18:51:03.921Z,57.37
2019-02-09T18:53:33.572Z,62.00
2019-02-09T18:56:03.360Z,55.70
2019-02-09T18:58:32.982Z,60.33
2019-02-09T19:01:02.716Z,65.73
2019-02-09T19:03:32.307Z,71.73
2019-02-09T19:06:01.898Z,73.43
2019-02-09T19:08:31.504Z,68.90
2019-02-09T19:11:01.101Z,64.00
2019-02-09T19:13:30.712Z,61.07
2019-02-09T19:16:00.199Z,65.47
2019-02-09T19:18:29.720Z,65.47
2019-02-09T19:21:00.799Z,66.17
2019-02-09T19:23:30.376Z,60.53
2019-02-09T19:26:00.001Z,65.77
2019-02-09T19:28:29.575Z,68.03
2019-02-09T19:30:59.108Z,65.20
2019-02-09T19:33:28.689Z,71.77
2019-02-09T19:35:58.233Z,64.97
2019-02-09T19:38:27.786Z,68.10
2019-02-09T19:40:57.302Z,66.87
2019-02-09T19:43:26.939Z,63.37
2019-02-09T19:45:56.469Z,67.77
2019-02-09T19:48:26.011Z,63.07
2019-02-09T19:50:55.647Z,65.40
2019-02-09T19:53:25.168Z,59.10
2019-02-09T19:55:54.712Z,63.00
2019-02-09T19:58:24.223Z,67.73
2019-02-09T20:00:53.966Z,65.80
2019-02-09T20:03:23.517Z,58.50
2019-02-09T20:05:53.020Z,59.37
2019-02-09T20:08:22.659Z,57.07
2019-02-09T20:10:52.218Z,60.90
2019-02-09T20:13:21.758Z,67.77
2019-02-09T20:15:51.225Z,67.97
2019-02-09T20:18:20.713Z,61.10
2019-02-09T20:20:50.181Z,65.80
2019-02-09T20:23:19.737Z,65.53
2019-02-09T20:25:49.293Z,61.13
2019-02-09T20:28:18.964Z,60.97
2019-02-09T20:30:48.485Z,61.33
2019-02-09T20:33:18.087Z,62.67
2019-02-09T20:35:47.587Z,67.87
2019-02-09T20:38:17.274Z,66.60
2019-02-09T20:40:49.939Z,66.80
2019-02-09T20:43:20.726Z,70.80
2019-02-09T20:45:50.685Z,72.20
2019-02-09T20:48:20.352Z,71.70
2019-02-09T20:50:49.902Z,80.43
2019-02-09T20:53:19.429Z,69.70
2019-02-09T20:55:48.973Z,70.20
2019-02-09T20:58:18.433Z,68.47
2019-02-09T21:00:48.019Z,75.00
2019-02-09T21:03:17.610Z,75.37
2019-02-09T21:05:47.095Z,72.13
2019-02-09T21:08:16.739Z,64.97
2019-02-09T21:10:46.285Z,83.90
2019-02-09T21:13:15.793Z,70.10
2019-02-09T21:15:45.315Z,64.63
2019-02-09T21:18:14.893Z,65.73
2019-02-09T21:20:44.376Z,67.20
2019-02-09T21:23:14.007Z,67.77
2019-02-09T21:25:44.307Z,73.00
2019-02-09T21:28:14.135Z,67.30
2019-02-09T21:30:43.751Z,64.80
2019-02-09T21:33:13.760Z,70.67
2019-02-09T21:35:44.373Z,74.67
2019-02-09T21:38:14.287Z,73.07
2019-02-09T21:40:43.853Z,69.37
2019-02-09T21:43:13.892Z,65.57
2019-02-09T21:45:45.433Z,65.60
2019-02-09T21:48:14.713Z,74.77
2019-02-09T21:50:44.271Z,82.67
2019-02-09T21:53:13.825Z,71.53
2019-02-09T21:55:43.364Z,77.60
2019-02-09T21:58:12.879Z,75.23
2019-02-09T22:00:43.583Z,76.40
2019-02-09T22:03:13.752Z,79.33
2019-02-09T22:05:43.405Z,78.60
2019-02-09T22:08:19.601Z,79.77
2019-02-09T22:10:46.457Z,69.23
2019-02-09T22:13:16.016Z,74.13
2019-02-09T22:15:45.679Z,79.93
2019-02-09T22:18:15.357Z,73.33
2019-02-09T22:20:52.310Z,79.80
2019-02-09T22:23:16.230Z,81.03
2019-02-09T22:25:45.816Z,69.73
2019-02-09T22:28:18.729Z,76.70
2019-02-09T22:30:48.311Z,72.67
2019-02-09T22:33:24.469Z,68.90
2019-02-09T22:35:49.147Z,73.40
2019-02-09T22:38:18.655Z,67.80
2019-02-09T22:40:48.273Z,75.30
2019-02-09T22:43:17.861Z,70.93
2019-02-09T22:45:47.415Z,76.13
2019-02-09T22:48:16.991Z,67.00
2019-02-09T22:50:47.436Z,76.67
2019-02-09T22:53:17.362Z,62.63
2019-02-09T22:55:47.499Z,69.77
2019-02-09T22:58:17.488Z,64.50
2019-02-09T23:01:37.032Z,57.77
2019-02-09T23:04:42.545Z,65.43
2019-02-09T23:07:17.797Z,68.70
2019-02-09T23:09:47.428Z,55.87
2019-02-09T23:12:16.993Z,60.00
2019-02-09T23:14:46.475Z,56.53
2019-02-09T23:17:16.044Z,64.87
2019-02-09T23:19:45.661Z,66.70
2019-02-09T23:22:15.202Z,58.37
2019-02-09T23:24:46.004Z,63.40
2019-02-09T23:27:15.634Z,59.20
2019-02-09T23:29:45.190Z,58.40
2019-02-09T23:32:14.680Z,56.93
2019-02-09T23:34:44.311Z,54.60
2019-02-09T23:37:13.824Z,58.57
2019-02-09T23:39:43.338Z,52.43
2019-02-09T23:42:12.906Z,57.07
2019-02-09T23:44:42.461Z,56.83
2019-02-09T23:47:11.953Z,52.07
2019-02-09T23:49:41.532Z,57.27
2019-02-09T23:52:11.149Z,58.43
2019-02-09T23:54:40.644Z,62.20
2019-02-09T23:57:10.157Z,58.40
2019-02-09T23:59:39.699Z,53.17
